Airfield :
LOGIN :

Register | Disclaimer

   EN    FR    IT 

 










Legend :    VFR   Marginal VFR   IFR   Intensive IFR   Very Intensive IFR
Visi :
Ceiling :
>= 8 km
>= 3000ft
5 to 8 km
1000 to 3000 ft
1500m to 5 km
500 to 1000 ft
800 to 1500m
200 to 500 ft
< 800m
< 200 ft
Symbols :   Thunderstorms  Fog  Heavy snow  Heavy precipitations  Wind > 20 kt
SIGMETs :     Misc.  Thunderstorms  Icing  Turbulence  Mountain Waves  Volcanic Ashes






- Airport Elevation : 17 ft
- IATA code : CPH


EKCH - København - Kastrup (Copenhagen)

CURRENT METAR :
  • 291120Z AUTO 16019KT 9999 SCT150/// 05/02 Q1014 TEMPO 17018G28KT

EXPIRED METARs :
  • 291050Z AUTO 16019KT 9000 BKN150/// 05/02 Q1014 TEMPO 17018G28KT
  • 291020Z AUTO 16019KT 9999 NCD 05/02 Q1014 TEMPO 17018G28KT
  • 290950Z AUTO 16018KT 9999 FEW045/// 05/01 Q1014 TEMPO 17018G28KT
  • 290920Z AUTO 16018KT 9999 FEW140/// 04/02 Q1014 TEMPO 17018G28KT
  • 290850Z AUTO 16018KT 9000 FEW150/// 05/01 Q1014 TEMPO 17018G28KT
  • 290820Z AUTO 16018KT 9999 BKN140/// 04/01 Q1015 TEMPO 17018G28KT
  • 290750Z AUTO 16018KT 9999 NCD 04/01 Q1015 TEMPO 17018G28KT
  • 290720Z AUTO 16017KT 9999 FEW049/// BKN190/// 04/02 Q1015 TEMPO 17018G28KT
  • 290650Z AUTO 16015KT 9999 SCT048/// 03/01 Q1015 TEMPO 17018G28KT

TAF TAF EKCH
Valid from the 29 at 12:00 until the 01 at 12:00 UTC


291105Z 2912/0112 17016KT 9999 SCT040
TEMPO 2912/2914 17018G28KT
PROB40 0102/0112 2000 BR BKN004



MET'MAP, your aeronautical weather chart ! - Copyright ORBIFLY December 2007 - Disclaimer

ORBIFLY MET'MAP TEAM :

Programming & Development : Alexandra Zaïnal
Original concept : Baudouin d'Aumeries
Technical & hardware support : Manuel Goepfert
Assistance : Marc-Olivier Méhu




SOURCES & CREDITS :

   NOAA